createdAt,value
2023-02-13T00:00:32.642Z,6.00
2023-02-13T00:02:59.423Z,6.00
2023-02-13T00:05:26.265Z,6.00
2023-02-13T00:07:53.151Z,6.00
2023-02-13T00:10:19.961Z,6.00
2023-02-13T00:12:46.756Z,6.00
2023-02-13T00:15:13.650Z,6.00
2023-02-13T00:17:40.434Z,6.00
2023-02-13T00:20:08.061Z,6.00
2023-02-13T00:22:38.841Z,6.00
2023-02-13T00:25:07.225Z,6.00
2023-02-13T00:27:34.295Z,6.00
2023-02-13T00:30:01.141Z,6.00
2023-02-13T00:32:27.875Z,6.00
2023-02-13T00:34:54.751Z,6.00
2023-02-13T00:37:21.880Z,6.00
2023-02-13T00:39:48.679Z,6.00
2023-02-13T00:42:15.531Z,6.00
2023-02-13T00:44:42.360Z,6.00
2023-02-13T00:47:09.611Z,6.00
2023-02-13T00:49:36.384Z,5.90
2023-02-13T00:52:03.210Z,6.00
2023-02-13T00:54:30.136Z,6.00
2023-02-13T00:56:56.948Z,6.00
2023-02-13T00:59:23.732Z,6.00
2023-02-13T01:01:50.636Z,6.00
2023-02-13T01:04:17.502Z,6.00
2023-02-13T01:06:44.304Z,6.00
2023-02-13T01:09:11.687Z,5.90
2023-02-13T01:11:38.650Z,5.90
2023-02-13T01:14:05.483Z,5.90
2023-02-13T01:16:32.223Z,5.90
2023-02-13T01:18:59.133Z,5.90
2023-02-13T01:21:26.320Z,5.90
2023-02-13T01:23:53.347Z,5.90
2023-02-13T01:26:22.816Z,5.90
2023-02-13T01:28:53.470Z,5.90
2023-02-13T01:31:20.714Z,5.90
2023-02-13T01:33:47.536Z,5.90
2023-02-13T01:36:14.467Z,5.80
2023-02-13T01:38:41.714Z,5.90
2023-02-13T01:41:09.271Z,5.90
2023-02-13T01:43:57.188Z,5.80
2023-02-13T01:46:38.680Z,5.80
2023-02-13T01:49:22.262Z,5.80
2023-02-13T01:51:52.486Z,5.80
2023-02-13T01:54:31.013Z,5.80
2023-02-13T01:57:12.253Z,5.80
2023-02-13T01:59:46.424Z,5.80
2023-02-13T02:02:14.085Z,5.80
2023-02-13T02:04:43.916Z,5.80
2023-02-13T02:07:21.233Z,5.80
2023-02-13T02:09:49.136Z,5.80
2023-02-13T02:12:42.307Z,5.80
2023-02-13T02:15:09.608Z,5.70
2023-02-13T02:17:36.714Z,5.70
2023-02-13T02:20:25.532Z,5.70
2023-02-13T02:23:20.529Z,5.70
2023-02-13T02:26:15.815Z,5.70
2023-02-13T02:29:16.540Z,5.60
2023-02-13T02:31:49.143Z,5.60
2023-02-13T02:34:24.785Z,5.60
2023-02-13T02:37:23.956Z,5.60
2023-02-13T02:40:21.040Z,5.60
2023-02-13T02:43:02.922Z,5.60
2023-02-13T02:45:38.432Z,5.60
2023-02-13T02:48:45.911Z,5.60
2023-02-13T02:51:21.228Z,5.60
2023-02-13T02:53:48.011Z,5.50
2023-02-13T02:56:25.874Z,5.60
2023-02-13T02:59:14.318Z,5.50
2023-02-13T03:02:00.600Z,5.50
2023-02-13T03:04:54.987Z,5.60
2023-02-13T03:07:21.741Z,5.60
2023-02-13T03:10:11.781Z,5.60
2023-02-13T03:13:19.762Z,5.60
2023-02-13T03:16:07.415Z,5.60
2023-02-13T03:18:57.806Z,5.60
2023-02-13T03:22:19.309Z,5.60
2023-02-13T03:25:35.490Z,5.60
2023-02-13T03:28:53.316Z,5.60
2023-02-13T03:31:25.787Z,5.60
2023-02-13T03:33:57.049Z,5.60
2023-02-13T03:37:05.595Z,5.60
2023-02-13T03:40:09.723Z,5.60
2023-02-13T03:42:59.398Z,5.60
2023-02-13T03:45:51.675Z,5.60
2023-02-13T03:48:58.558Z,5.50
2023-02-13T03:51:28.772Z,5.50
2023-02-13T03:53:59.337Z,5.50
2023-02-13T03:56:47.298Z,5.50
2023-02-13T03:59:23.919Z,5.50
2023-02-13T04:02:03.952Z,5.50
2023-02-13T04:04:48.835Z,5.50
2023-02-13T04:07:32.685Z,5.60
2023-02-13T04:10:05.659Z,5.50
2023-02-13T04:13:03.183Z,5.50
2023-02-13T04:15:34.339Z,5.60
2023-02-13T04:18:10.823Z,5.50
2023-02-13T04:20:38.501Z,5.50
2023-02-13T04:23:07.632Z,5.50
2023-02-13T04:25:37.623Z,5.50
2023-02-13T04:28:04.784Z,5.50
2023-02-13T04:30:31.946Z,5.50
2023-02-13T04:32:58.898Z,5.50
2023-02-13T04:35:26.100Z,5.50
2023-02-13T04:37:53.053Z,5.50
2023-02-13T04:40:20.168Z,5.50
2023-02-13T04:42:50.509Z,5.50
2023-02-13T04:45:17.664Z,5.50
2023-02-13T04:47:51.191Z,5.50
2023-02-13T04:50:18.741Z,5.50
2023-02-13T04:52:45.620Z,5.40
2023-02-13T04:55:12.941Z,5.50
2023-02-13T04:57:40.414Z,5.40
2023-02-13T05:00:08.480Z,5.40
2023-02-13T05:02:35.309Z,5.40
2023-02-13T05:05:02.257Z,5.40
2023-02-13T05:07:29.323Z,5.40
2023-02-13T05:09:56.210Z,5.40
2023-02-13T05:12:22.982Z,5.40
2023-02-13T05:14:50.087Z,5.40
2023-02-13T05:17:16.847Z,5.40
2023-02-13T05:19:43.657Z,5.40
2023-02-13T05:22:29.952Z,5.40
2023-02-13T05:24:56.800Z,5.40
2023-02-13T05:27:23.693Z,5.40
2023-02-13T05:29:50.532Z,5.40
2023-02-13T05:32:17.560Z,5.40
2023-02-13T05:34:44.584Z,5.40
2023-02-13T05:37:11.385Z,5.40
2023-02-13T05:39:38.270Z,5.40
2023-02-13T05:42:05.611Z,5.40
2023-02-13T05:44:32.473Z,5.40
2023-02-13T05:46:59.322Z,5.40
2023-02-13T05:49:26.251Z,5.40
2023-02-13T05:51:53.187Z,5.40
2023-02-13T05:54:20.138Z,5.40
2023-02-13T05:56:47.155Z,5.40
2023-02-13T05:59:14.306Z,5.40
2023-02-13T06:01:41.380Z,5.40
2023-02-13T06:04:08.260Z,5.40
2023-02-13T06:06:35.316Z,5.40
2023-02-13T06:09:02.144Z,5.40
2023-02-13T06:11:28.917Z,5.40
2023-02-13T06:13:55.768Z,5.40
2023-02-13T06:16:22.745Z,5.40
2023-02-13T06:18:49.874Z,5.40
2023-02-13T06:21:16.710Z,5.40
2023-02-13T06:23:43.555Z,5.40
2023-02-13T06:26:10.577Z,5.40
2023-02-13T06:28:37.608Z,5.40
2023-02-13T06:31:04.819Z,5.40
2023-02-13T06:33:32.002Z,5.40
2023-02-13T06:35:58.843Z,5.40
2023-02-13T06:38:25.689Z,5.40
2023-02-13T06:40:52.648Z,5.40
2023-02-13T06:43:19.479Z,5.40
2023-02-13T06:45:47.263Z,5.40
2023-02-13T06:48:14.756Z,5.40
2023-02-13T06:50:41.967Z,5.40
2023-02-13T06:53:08.901Z,5.40
2023-02-13T06:55:36.449Z,5.40
2023-02-13T06:58:03.188Z,5.40
2023-02-13T07:00:30.157Z,5.40
2023-02-13T07:03:02.966Z,5.40
2023-02-13T07:05:29.990Z,5.40
2023-02-13T07:07:57.261Z,5.40
2023-02-13T07:10:24.474Z,5.40
2023-02-13T07:13:04.724Z,5.40
2023-02-13T07:15:36.566Z,5.40
2023-02-13T07:18:04.085Z,5.40
2023-02-13T07:20:31.018Z,5.40
2023-02-13T07:23:02.114Z,5.50
2023-02-13T07:25:29.616Z,5.50
2023-02-13T07:28:00.982Z,5.50
2023-02-13T07:30:27.857Z,5.50
2023-02-13T07:32:57.981Z,5.50
2023-02-13T07:35:24.890Z,5.50
2023-02-13T07:37:54.151Z,5.50
2023-02-13T07:40:21.851Z,5.50
2023-02-13T07:42:48.668Z,5.50
2023-02-13T07:45:16.118Z,5.50
2023-02-13T07:47:43.267Z,5.60
2023-02-13T07:50:10.609Z,5.60
2023-02-13T07:52:37.921Z,5.60
2023-02-13T07:55:06.290Z,5.60
2023-02-13T07:57:33.982Z,5.60
2023-02-13T08:00:00.893Z,5.60
2023-02-13T08:02:27.805Z,5.60
2023-02-13T08:04:54.564Z,5.60
2023-02-13T08:07:21.390Z,5.60
2023-02-13T08:10:06.808Z,5.70
2023-02-13T08:12:35.771Z,5.70
2023-02-13T08:15:04.040Z,5.70
2023-02-13T08:17:30.850Z,5.70
2023-02-13T08:19:57.941Z,5.80
2023-02-13T08:22:24.915Z,5.80
2023-02-13T08:24:51.831Z,5.90
2023-02-13T08:27:18.659Z,5.90
2023-02-13T08:29:45.701Z,5.90
2023-02-13T08:32:12.636Z,6.00
2023-02-13T08:34:39.559Z,6.00
2023-02-13T08:37:06.322Z,6.00
2023-02-13T08:39:33.106Z,6.10
2023-02-13T08:41:59.934Z,6.00
2023-02-13T08:44:26.742Z,6.10
2023-02-13T08:46:53.676Z,6.10
2023-02-13T08:49:20.597Z,6.20
2023-02-13T08:51:47.532Z,6.20
2023-02-13T08:54:14.392Z,6.20
2023-02-13T08:56:42.056Z,6.20
2023-02-13T08:59:09.212Z,6.30
2023-02-13T09:01:35.980Z,6.30
2023-02-13T09:04:02.890Z,6.30
2023-02-13T09:06:29.737Z,6.40
2023-02-13T09:08:56.777Z,6.30
2023-02-13T09:11:23.747Z,6.40
2023-02-13T09:13:53.645Z,6.40
2023-02-13T09:16:20.681Z,6.40
2023-02-13T09:18:49.236Z,6.50
2023-02-13T09:21:17.219Z,6.50
2023-02-13T09:23:44.183Z,6.50
2023-02-13T09:26:13.933Z,6.50
2023-02-13T09:28:41.280Z,6.60
2023-02-13T09:31:16.583Z,6.60
2023-02-13T09:33:44.157Z,6.60
2023-02-13T09:36:14.639Z,6.60
2023-02-13T09:38:45.759Z,6.70
2023-02-13T09:41:18.423Z,6.70
2023-02-13T09:43:50.878Z,6.70
2023-02-13T09:46:28.516Z,6.70
2023-02-13T09:48:58.456Z,6.70
2023-02-13T09:51:27.757Z,6.80
2023-02-13T09:54:08.891Z,6.90
2023-02-13T09:56:52.733Z,6.90
2023-02-13T09:59:35.556Z,6.90
2023-02-13T10:02:14.468Z,6.90
2023-02-13T10:05:12.687Z,7.00
2023-02-13T10:07:48.299Z,6.90
2023-02-13T10:10:33.113Z,7.00
2023-02-13T10:13:45.780Z,7.00
2023-02-13T10:16:27.403Z,7.00
2023-02-13T10:19:04.099Z,7.00
2023-02-13T10:21:36.290Z,7.00
2023-02-13T10:24:12.074Z,7.00
2023-02-13T10:26:42.733Z,7.10
2023-02-13T10:29:41.369Z,7.10
2023-02-13T10:32:13.761Z,7.10
2023-02-13T10:34:45.851Z,7.10
2023-02-13T10:37:19.504Z,7.10
2023-02-13T10:39:50.033Z,7.20
2023-02-13T10:42:22.821Z,7.20
2023-02-13T10:45:02.573Z,7.20
2023-02-13T10:48:15.749Z,7.30
2023-02-13T10:50:48.707Z,7.20
2023-02-13T10:53:30.835Z,7.20
2023-02-13T10:56:19.540Z,7.30
2023-02-13T10:59:05.470Z,7.40
2023-02-13T11:01:41.664Z,7.30
2023-02-13T11:04:10.338Z,7.40
2023-02-13T11:06:40.573Z,7.30
2023-02-13T11:09:08.051Z,7.30
2023-02-13T11:11:38.855Z,7.40
2023-02-13T11:14:23.526Z,7.40
2023-02-13T11:16:50.412Z,7.40
2023-02-13T11:19:29.412Z,7.40
2023-02-13T11:22:06.910Z,7.30
2023-02-13T11:24:34.732Z,7.40
2023-02-13T11:27:13.588Z,7.40
2023-02-13T11:29:58.605Z,7.60
2023-02-13T11:32:28.439Z,7.50
2023-02-13T11:34:56.054Z,7.50
2023-02-13T11:37:29.616Z,7.50
2023-02-13T11:39:59.123Z,7.40
2023-02-13T11:42:35.861Z,7.40
2023-02-13T11:45:19.956Z,7.40
2023-02-13T11:47:46.950Z,7.30
2023-02-13T11:50:31.418Z,7.30
2023-02-13T11:53:00.927Z,7.40
2023-02-13T11:55:38.098Z,7.30
2023-02-13T11:58:25.939Z,7.20
2023-02-13T12:01:23.255Z,7.20
2023-02-13T12:04:16.862Z,7.20
2023-02-13T12:07:11.754Z,7.20
2023-02-13T12:09:40.754Z,7.20
2023-02-13T12:12:16.106Z,7.20
2023-02-13T12:14:44.757Z,7.20
2023-02-13T12:17:31.171Z,7.20
2023-02-13T12:19:59.228Z,7.20
2023-02-13T12:22:54.337Z,7.20
2023-02-13T12:25:39.874Z,7.20
2023-02-13T12:28:15.213Z,7.20
2023-02-13T12:31:09.382Z,7.20
2023-02-13T12:33:47.947Z,7.20
2023-02-13T12:36:26.689Z,7.00
2023-02-13T12:38:53.460Z,7.10
2023-02-13T12:41:36.054Z,7.10
2023-02-13T12:44:25.934Z,7.10
2023-02-13T12:47:01.720Z,7.00
2023-02-13T12:49:59.782Z,7.00
2023-02-13T12:52:34.005Z,7.00
2023-02-13T12:55:23.846Z,7.00
2023-02-13T12:58:06.648Z,7.00
2023-02-13T13:00:48.384Z,7.00
2023-02-13T13:03:34.673Z,7.00
2023-02-13T13:06:11.744Z,7.00
2023-02-13T13:08:57.702Z,7.00
2023-02-13T13:11:24.558Z,7.00
2023-02-13T13:14:15.626Z,7.00
2023-02-13T13:17:03.519Z,6.90
2023-02-13T13:20:08.732Z,6.90
2023-02-13T13:23:02.470Z,6.90
2023-02-13T13:25:36.156Z,6.90
2023-02-13T13:28:12.085Z,6.90
2023-02-13T13:30:40.625Z,6.90
2023-02-13T13:33:21.411Z,6.90
2023-02-13T13:35:59.077Z,6.90
2023-02-13T13:39:01.418Z,6.90
2023-02-13T13:41:31.249Z,6.90
2023-02-13T13:44:04.085Z,6.80
2023-02-13T13:46:35.943Z,6.80
2023-02-13T13:49:17.453Z,6.90
2023-02-13T13:51:44.505Z,6.90
2023-02-13T13:54:11.344Z,6.90
2023-02-13T13:56:53.489Z,6.90
2023-02-13T13:59:51.785Z,6.90
2023-02-13T14:02:18.683Z,6.80
2023-02-13T14:05:23.887Z,6.80
2023-02-13T14:07:55.569Z,6.90
2023-02-13T14:10:23.389Z,6.90
2023-02-13T14:13:10.463Z,6.90
2023-02-13T14:15:42.297Z,6.90
2023-02-13T14:18:15.286Z,6.80
2023-02-13T14:20:42.904Z,6.80
2023-02-13T14:23:24.729Z,6.90
2023-02-13T14:26:12.985Z,6.90
2023-02-13T14:28:51.035Z,6.90
2023-02-13T14:31:27.590Z,7.00
2023-02-13T14:34:06.714Z,7.00
2023-02-13T14:36:44.559Z,6.90
2023-02-13T14:39:25.812Z,6.90
2023-02-13T14:41:55.292Z,6.80
2023-02-13T14:44:22.054Z,6.90
2023-02-13T14:46:52.414Z,6.90
2023-02-13T14:49:26.654Z,6.90
2023-02-13T14:51:58.383Z,6.90
2023-02-13T14:54:37.136Z,7.00
2023-02-13T14:57:17.143Z,6.90
2023-02-13T14:59:53.183Z,6.90
2023-02-13T15:02:30.095Z,6.90
2023-02-13T15:05:02.892Z,6.90
2023-02-13T15:07:42.322Z,6.80
2023-02-13T15:10:35.624Z,6.80
2023-02-13T15:13:03.484Z,6.80
2023-02-13T15:15:34.060Z,6.70
2023-02-13T15:18:10.258Z,6.60
2023-02-13T15:20:41.079Z,6.70
2023-02-13T15:23:09.452Z,6.60
2023-02-13T15:25:40.196Z,6.50
2023-02-13T15:28:17.148Z,6.60
2023-02-13T15:31:00.871Z,6.60
2023-02-13T15:33:47.931Z,6.40
2023-02-13T15:36:41.324Z,6.30
2023-02-13T15:39:16.002Z,6.20
2023-02-13T15:41:50.240Z,6.20
2023-02-13T15:44:23.832Z,6.10
2023-02-13T15:46:52.792Z,6.00
2023-02-13T15:49:23.784Z,5.90
2023-02-13T15:51:51.705Z,5.80
2023-02-13T15:54:30.168Z,5.80
2023-02-13T15:57:00.267Z,5.70
2023-02-13T15:59:32.448Z,5.70
2023-02-13T16:02:01.357Z,5.60
2023-02-13T16:04:30.342Z,5.60
2023-02-13T16:06:57.987Z,5.60
2023-02-13T16:09:36.380Z,5.50
2023-02-13T16:12:07.523Z,5.50
2023-02-13T16:14:44.679Z,5.50
2023-02-13T16:17:39.784Z,5.50
2023-02-13T16:20:08.163Z,5.50
2023-02-13T16:22:45.902Z,5.40
2023-02-13T16:25:12.667Z,5.40
2023-02-13T16:27:48.705Z,5.40
2023-02-13T16:30:27.609Z,5.30
2023-02-13T16:33:14.671Z,5.30
2023-02-13T16:35:59.214Z,5.30
2023-02-13T16:38:32.055Z,5.30
2023-02-13T16:41:26.122Z,5.30
2023-02-13T16:44:00.709Z,5.30
2023-02-13T16:46:33.382Z,5.30
2023-02-13T16:49:08.744Z,5.30
2023-02-13T16:51:38.474Z,5.30
2023-02-13T16:54:05.270Z,5.30
2023-02-13T16:56:48.796Z,5.30
2023-02-13T16:59:22.057Z,5.30
2023-02-13T17:02:02.209Z,5.30
2023-02-13T17:04:29.108Z,5.30
2023-02-13T17:06:56.286Z,5.30
2023-02-13T17:09:23.476Z,5.30
2023-02-13T17:11:52.379Z,5.30
2023-02-13T17:14:20.402Z,5.30
2023-02-13T17:16:48.692Z,5.30
2023-02-13T17:19:15.587Z,5.30
2023-02-13T17:21:42.457Z,5.30
2023-02-13T17:24:16.970Z,5.30
2023-02-13T17:26:43.987Z,5.30
2023-02-13T17:29:10.794Z,5.30
2023-02-13T17:31:37.714Z,5.30
2023-02-13T17:34:05.447Z,5.30
2023-02-13T17:36:36.915Z,5.30
2023-02-13T17:39:03.867Z,5.30
2023-02-13T17:41:30.762Z,5.30
2023-02-13T17:43:57.851Z,5.30
2023-02-13T17:46:24.745Z,5.30
2023-02-13T17:48:51.585Z,5.30
2023-02-13T17:51:48.679Z,5.30
2023-02-13T17:54:15.724Z,5.30
2023-02-13T17:56:42.482Z,5.20
2023-02-13T17:59:09.264Z,5.20
2023-02-13T18:01:36.218Z,5.20
2023-02-13T18:04:03.083Z,5.20
2023-02-13T18:06:30.227Z,5.20
2023-02-13T18:08:57.114Z,5.20
2023-02-13T18:11:23.953Z,5.20
2023-02-13T18:13:50.723Z,5.20
2023-02-13T18:16:17.739Z,5.20
2023-02-13T18:18:44.670Z,5.20
2023-02-13T18:21:12.759Z,5.20
2023-02-13T18:23:40.372Z,5.20
2023-02-13T18:26:10.165Z,5.20
2023-02-13T18:28:37.997Z,5.20
2023-02-13T18:31:05.073Z,5.20
2023-02-13T18:33:32.028Z,5.20
2023-02-13T18:36:03.531Z,5.20
2023-02-13T18:38:30.332Z,5.20
2023-02-13T18:44:54.950Z,5.10
2023-02-13T18:47:25.105Z,5.10
2023-02-13T18:50:06.475Z,5.10
2023-02-13T18:52:39.299Z,5.10
2023-02-13T18:55:07.259Z,5.10
2023-02-13T18:57:34.852Z,5.10
2023-02-13T19:00:03.826Z,5.10
2023-02-13T19:02:32.935Z,5.10
2023-02-13T19:04:59.876Z,5.10
2023-02-13T19:07:26.835Z,5.10
2023-02-13T19:09:53.686Z,5.10
2023-02-13T19:12:20.416Z,5.10
2023-02-13T19:14:48.067Z,5.10
2023-02-13T19:18:15.176Z,5.10
2023-02-13T19:20:45.169Z,5.10
2023-02-13T19:23:21.502Z,5.10
2023-02-13T19:25:52.120Z,5.10
2023-02-13T19:28:19.818Z,5.10
2023-02-13T19:30:49.661Z,5.10
2023-02-13T19:33:19.233Z,5.10
2023-02-13T19:35:58.316Z,5.10
2023-02-13T19:38:25.352Z,5.10
2023-02-13T19:40:52.601Z,5.10
2023-02-13T19:43:19.395Z,5.10
2023-02-13T19:45:46.169Z,5.10
2023-02-13T19:48:13.084Z,5.10
2023-02-13T19:50:39.911Z,5.10
2023-02-13T19:53:07.638Z,5.10
2023-02-13T19:55:34.691Z,5.10
2023-02-13T19:58:01.561Z,5.10
2023-02-13T20:00:28.420Z,5.10
2023-02-13T20:03:03.978Z,5.10
2023-02-13T20:05:32.793Z,5.10
2023-02-13T20:07:59.541Z,5.10
2023-02-13T20:10:26.405Z,5.10
2023-02-13T20:12:53.894Z,5.10
2023-02-13T20:15:21.520Z,5.00
2023-02-13T20:17:48.430Z,5.00
2023-02-13T20:20:15.217Z,5.00
2023-02-13T20:22:42.271Z,5.00
2023-02-13T20:25:09.237Z,5.00
2023-02-13T20:27:42.248Z,5.00
2023-02-13T20:30:13.889Z,5.00
2023-02-13T20:32:41.696Z,5.00
2023-02-13T20:35:08.841Z,5.00
2023-02-13T20:37:36.073Z,5.00
2023-02-13T20:40:11.680Z,5.00
2023-02-13T20:42:38.546Z,5.00
2023-02-13T20:45:05.841Z,5.00
2023-02-13T20:47:32.687Z,5.00
2023-02-13T20:49:59.497Z,5.00
2023-02-13T20:52:26.546Z,4.90
2023-02-13T20:54:53.317Z,4.90
2023-02-13T20:57:20.100Z,4.90
2023-02-13T20:59:46.961Z,4.90
2023-02-13T21:02:13.876Z,4.90
2023-02-13T21:04:40.755Z,4.90
2023-02-13T21:07:09.231Z,4.90
2023-02-13T21:09:37.500Z,4.90
2023-02-13T21:12:04.756Z,4.90
2023-02-13T21:14:31.706Z,4.90
2023-02-13T21:16:58.475Z,4.90
2023-02-13T21:19:25.454Z,4.90
2023-02-13T21:21:52.231Z,4.90
2023-02-13T21:24:21.636Z,4.90
2023-02-13T21:26:51.765Z,4.90
2023-02-13T21:29:19.245Z,4.90
2023-02-13T21:31:53.222Z,4.90
2023-02-13T21:34:20.042Z,4.90
2023-02-13T21:36:47.275Z,4.90
2023-02-13T21:39:14.697Z,4.90
2023-02-13T21:41:45.607Z,4.90
2023-02-13T21:44:14.573Z,4.80
2023-02-13T21:46:41.982Z,4.80
2023-02-13T21:49:15.720Z,4.80
2023-02-13T21:51:42.813Z,4.80
2023-02-13T21:54:10.369Z,4.80
2023-02-13T21:56:39.944Z,4.80
2023-02-13T21:59:07.161Z,4.80
2023-02-13T22:01:36.562Z,4.80
2023-02-13T22:04:07.251Z,4.80
2023-02-13T22:06:36.608Z,4.80
2023-02-13T22:09:05.014Z,4.80
2023-02-13T22:11:32.709Z,4.70
2023-02-13T22:14:02.584Z,4.70
2023-02-13T22:16:35.095Z,4.70
2023-02-13T22:19:02.374Z,4.70
2023-02-13T22:21:31.115Z,4.70
2023-02-13T22:23:58.377Z,4.70
2023-02-13T22:26:30.702Z,4.70
2023-02-13T22:29:06.839Z,4.70
2023-02-13T22:31:34.437Z,4.70
2023-02-13T22:34:04.325Z,4.70
2023-02-13T22:36:33.833Z,4.70
2023-02-13T22:39:00.768Z,4.70
2023-02-13T22:41:28.016Z,4.70
2023-02-13T22:43:54.815Z,4.60
2023-02-13T22:46:24.281Z,4.60
2023-02-13T22:48:52.463Z,4.70
2023-02-13T22:51:31.241Z,4.60
2023-02-13T22:53:59.338Z,4.60
2023-02-13T22:56:28.074Z,4.60
2023-02-13T22:58:55.234Z,4.60
2023-02-13T23:01:23.767Z,4.60
2023-02-13T23:03:50.851Z,4.60
2023-02-13T23:06:18.279Z,4.60
2023-02-13T23:08:45.596Z,4.60
2023-02-13T23:11:34.197Z,4.70
2023-02-13T23:14:01.015Z,4.70
2023-02-13T23:16:28.683Z,4.60
2023-02-13T23:18:57.586Z,4.60
2023-02-13T23:21:25.519Z,4.60
2023-02-13T23:23:52.442Z,4.60
2023-02-13T23:26:19.685Z,4.60
2023-02-13T23:28:46.643Z,4.60
2023-02-13T23:31:13.520Z,4.60
2023-02-13T23:33:40.408Z,4.60
2023-02-13T23:36:07.646Z,4.50
2023-02-13T23:38:34.445Z,4.50
2023-02-13T23:41:10.287Z,4.50
2023-02-13T23:43:37.071Z,4.50
2023-02-13T23:46:05.639Z,4.50
2023-02-13T23:48:33.178Z,4.50
2023-02-13T23:51:00.284Z,4.50
2023-02-13T23:53:27.389Z,4.50
2023-02-13T23:55:54.979Z,4.50
2023-02-13T23:58:21.901Z,4.50
